Time,TemperatureF,DewpointF,PressureIn,WindDirection,WindDirectionDegrees,WindSpeedMPH,WindSpeedGustMPH,Humidity,HourlyPrecipIn,Conditions,Clouds,dailyrainin,SoftwareType,DateUTC
2013-04-02 00:01:00,23.3,17.8,30.19,WNW,289,0.0,0.0,79,0.00,,---,0.00,VWS V14.01,2013-04-02 04:01:00,
2013-04-02 00:46:00,23.0,18.3,30.19,WNW,289,0.0,0.0,82,0.00,,---,0.00,VWS V14.01,2013-04-02 04:46:00,
2013-04-02 01:01:00,23.0,18.6,30.19,WNW,289,0.0,0.0,83,0.00,,---,0.00,VWS V14.01,2013-04-02 05:01:00,
2013-04-02 01:16:00,23.1,18.7,30.19,WNW,289,0.0,0.0,83,0.00,,---,0.00,VWS V14.01,2013-04-02 05:16:00,
2013-04-02 01:46:00,23.0,17.8,30.19,WNW,289,0.0,2.0,80,0.00,,---,0.00,VWS V14.01,2013-04-02 05:46:00,
2013-04-02 02:01:00,24.1,18.2,30.20,WNW,289,0.0,4.0,78,0.00,,---,0.00,VWS V14.01,2013-04-02 06:01:00,
2013-04-02 03:16:00,24.9,19.6,30.21,WNW,289,0.0,0.0,80,0.00,,---,0.00,VWS V14.01,2013-04-02 07:16:00,
2013-04-02 03:46:00,23.9,18.9,30.21,WNW,289,0.0,2.0,81,0.00,,---,0.00,VWS V14.01,2013-04-02 07:46:00,
2013-04-02 04:01:00,23.4,18.7,30.20,WNW,289,0.0,0.0,82,0.00,,---,0.00,VWS V14.01,2013-04-02 08:01:00,
2013-04-02 04:16:00,23.0,18.3,30.20,WNW,289,0.0,0.0,82,0.00,,---,0.00,VWS V14.01,2013-04-02 08:16:00,
2013-04-02 04:31:00,23.0,18.3,30.20,WNW,289,0.0,1.0,82,0.00,,---,0.00,VWS V14.01,2013-04-02 08:31:00,
2013-04-02 04:46:00,23.7,17.6,30.20,WNW,289,0.0,2.0,77,0.00,,---,0.00,VWS V14.01,2013-04-02 08:46:00,
2013-04-02 05:16:00,25.1,17.4,30.21,WNW,289,2.0,3.0,72,0.00,,---,0.00,VWS V14.01,2013-04-02 09:16:00,
2013-04-02 06:16:00,27.6,18.4,30.23,WNW,293,2.0,4.0,68,0.00,,---,0.00,VWS V14.01,2013-04-02 10:16:00,
2013-04-02 06:31:00,27.0,18.2,30.23,WNW,293,0.0,4.0,69,0.00,,---,0.00,VWS V14.01,2013-04-02 10:31:00,
2013-04-02 06:46:00,26.1,17.7,30.24,WNW,293,0.0,1.0,70,0.00,,---,0.00,VWS V14.01,2013-04-02 10:46:00,
2013-04-02 07:01:00,25.1,17.7,30.24,WNW,293,0.0,0.0,73,0.00,,---,0.00,VWS V14.01,2013-04-02 11:01:00,
2013-04-02 10:31:00,33.6,15.5,30.29,West,271,7.0,13.0,47,0.00,,---,0.00,VWS V14.01,2013-04-02 14:31:00,
2013-04-02 11:16:00,34.2,13.5,30.30,West,273,4.0,14.0,42,0.00,,---,0.00,VWS V14.01,2013-04-02 15:16:00,
2013-04-02 12:46:00,35.0,13.7,30.30,WSW,250,10.0,17.0,41,0.00,,---,0.00,VWS V14.01,2013-04-02 16:46:00,
2013-04-02 13:01:00,35.4,12.9,30.30,WNW,294,14.0,20.0,39,0.00,,---,0.00,VWS V14.01,2013-04-02 17:01:00,
2013-04-02 13:16:00,35.6,13.7,30.30,NW,323,10.0,19.0,40,0.00,,---,0.00,VWS V14.01,2013-04-02 17:16:00,
2013-04-02 14:46:00,36.0,11.6,30.29,West,273,11.0,19.0,36,0.00,,---,0.00,VWS V14.01,2013-04-02 18:46:00,
2013-04-02 15:31:00,37.0,11.2,30.28,NNW,338,12.0,21.0,34,0.00,,---,0.00,VWS V14.01,2013-04-02 19:31:00,
2013-04-02 15:46:00,37.3,11.5,30.27,West,265,13.0,17.0,34,0.00,,---,0.00,VWS V14.01,2013-04-02 19:46:00,
2013-04-02 16:46:00,38.4,11.8,30.27,West,273,11.0,17.0,33,0.00,,---,0.00,VWS V14.01,2013-04-02 20:46:00,
2013-04-02 17:46:00,38.1,12.9,30.28,WNW,290,5.0,16.0,35,0.00,,---,0.00,VWS V14.01,2013-04-02 21:46:00,
2013-04-02 18:01:00,38.6,12.7,30.28,North,351,10.0,13.0,34,0.00,,---,0.00,VWS V14.01,2013-04-02 22:01:00,
2013-04-02 18:16:00,38.4,12.5,30.28,NW,326,9.0,12.0,34,0.00,,---,0.00,VWS V14.01,2013-04-02 22:16:00,
2013-04-02 19:01:00,37.6,12.4,30.28,WNW,301,4.0,10.0,35,0.00,,---,0.00,VWS V14.01,2013-04-02 23:01:00,
2013-04-02 19:16:00,37.2,12.1,30.28,NNW,348,4.0,11.0,35,0.00,,---,0.00,VWS V14.01,2013-04-02 23:16:00,
2013-04-02 20:01:00,35.4,12.9,30.29,NW,313,1.0,8.0,39,0.00,,---,0.00,VWS V14.01,2013-04-03 00:01:00,
2013-04-02 22:01:00,29.9,13.5,30.32,NNW,347,0.0,2.0,50,0.00,,---,0.00,VWS V14.01,2013-04-03 02:01:00,
2013-04-02 22:16:00,29.6,13.7,30.32,NNW,347,0.0,1.0,51,0.00,,---,0.00,VWS V14.01,2013-04-03 02:16:00,
2013-04-02 23:16:00,25.7,14.1,30.33,NNW,347,0.0,0.0,61,0.00,,---,0.00,VWS V14.01,2013-04-03 03:16:00,